createdAt,value
2022-08-30T00:02:12.992Z,5.20
2022-08-30T00:04:54.495Z,5.50
2022-08-30T00:07:22.562Z,5.17
2022-08-30T00:09:50.159Z,5.00
2022-08-30T00:12:17.950Z,5.40
2022-08-30T00:18:26.933Z,5.00
2022-08-30T00:32:29.012Z,5.43
2022-08-30T00:38:48.320Z,5.07
2022-08-30T00:41:15.936Z,5.10
2022-08-30T00:43:43.628Z,5.30
2022-08-30T00:46:11.330Z,4.80
2022-08-30T00:52:22.346Z,4.70
2022-08-30T00:54:52.180Z,5.10
2022-08-30T00:57:20.168Z,4.73
2022-08-30T00:59:49.737Z,5.03
2022-08-30T01:02:21.884Z,4.93
2022-08-30T01:04:50.058Z,5.10
2022-08-30T01:07:18.150Z,5.33
2022-08-30T01:09:45.817Z,4.73
2022-08-30T01:12:13.545Z,4.97
2022-08-30T01:18:26.389Z,4.70
2022-08-30T01:21:02.845Z,4.60
2022-08-30T01:23:32.395Z,4.30
2022-08-30T01:26:04.843Z,4.90
2022-08-30T01:28:34.455Z,4.63
2022-08-30T01:34:43.443Z,4.77
2022-08-30T01:37:11.067Z,4.83
2022-08-30T01:39:39.193Z,4.90
2022-08-30T01:42:06.903Z,4.67
2022-08-30T01:44:34.428Z,4.47
2022-08-30T01:47:01.920Z,4.93
2022-08-30T01:53:13.178Z,4.20
2022-08-30T01:59:19.181Z,3.80
2022-08-30T02:05:27.717Z,4.73
2022-08-30T02:07:55.563Z,4.37
2022-08-30T02:10:23.204Z,4.47
2022-08-30T02:17:08.926Z,4.73
2022-08-30T02:19:36.850Z,4.60
2022-08-30T02:22:04.672Z,4.90
2022-08-30T02:24:33.316Z,4.93
2022-08-30T02:27:01.060Z,4.93
2022-08-30T02:29:29.133Z,4.73
2022-08-30T02:31:56.640Z,4.63
2022-08-30T02:34:24.262Z,4.53
2022-08-30T02:36:51.989Z,5.10
2022-08-30T02:43:11.359Z,4.70
2022-08-30T02:49:33.526Z,4.60
2022-08-30T02:52:02.261Z,4.27
2022-08-30T02:54:29.765Z,4.40
2022-08-30T02:56:57.460Z,4.67
2022-08-30T02:59:25.026Z,4.63
2022-08-30T03:05:34.407Z,4.87
2022-08-30T03:08:01.980Z,4.60
2022-08-30T03:10:30.076Z,4.90
2022-08-30T03:12:57.623Z,4.17
2022-08-30T03:15:25.474Z,4.50
2022-08-30T03:21:49.527Z,4.27
2022-08-30T03:28:08.725Z,4.50
2022-08-30T03:34:27.911Z,4.37
2022-08-30T03:40:46.762Z,4.80
2022-08-30T03:43:14.304Z,4.17
2022-08-30T03:45:42.081Z,4.70
2022-08-30T03:48:09.626Z,4.50
2022-08-30T03:50:37.262Z,4.50
2022-08-30T03:53:05.039Z,4.90
2022-08-30T03:55:32.734Z,4.80
2022-08-30T04:01:52.036Z,4.70
2022-08-30T04:08:10.990Z,4.80
2022-08-30T04:14:43.272Z,4.37
2022-08-30T04:17:11.535Z,5.00
2022-08-30T04:23:20.363Z,4.73
2022-08-30T04:25:48.226Z,4.97
2022-08-30T04:32:07.543Z,4.33
2022-08-30T04:38:30.388Z,10.20
2022-08-30T04:40:58.278Z,8.83
2022-08-30T04:47:06.809Z,12.10
2022-08-30T04:49:49.657Z,12.50
2022-08-30T04:56:20.922Z,5.13
2022-08-30T04:58:50.655Z,5.77
2022-08-30T05:08:51.275Z,6.30
2022-08-30T05:11:53.167Z,5.23
2022-08-30T05:14:20.690Z,4.73
2022-08-30T05:17:29.687Z,5.37
2022-08-30T05:23:40.534Z,5.47
2022-08-30T05:29:49.223Z,5.63
2022-08-30T05:32:43.080Z,6.10
2022-08-30T05:42:35.168Z,5.30
2022-08-30T05:45:06.270Z,5.50
2022-08-30T05:47:33.898Z,5.60
2022-08-30T05:50:01.420Z,5.90
2022-08-30T05:52:28.971Z,5.83
2022-08-30T05:54:59.401Z,5.67
2022-08-30T05:57:27.372Z,5.30
2022-08-30T06:03:35.693Z,6.07
2022-08-30T06:06:03.270Z,5.80
2022-08-30T06:08:30.862Z,6.53
2022-08-30T06:10:58.709Z,6.13
2022-08-30T06:13:26.271Z,6.10
2022-08-30T06:15:54.168Z,5.83
2022-08-30T06:18:28.389Z,6.00
2022-08-30T06:20:56.495Z,5.90
2022-08-30T06:23:24.312Z,7.83
2022-08-30T06:25:51.821Z,6.30
2022-08-30T06:28:19.390Z,6.13
2022-08-30T06:30:47.347Z,6.17
2022-08-30T06:33:14.984Z,6.97
2022-08-30T06:35:58.506Z,7.07
2022-08-30T06:38:26.923Z,6.83
2022-08-30T06:40:54.499Z,6.87
2022-08-30T06:43:22.020Z,7.17
2022-08-30T06:45:49.567Z,7.33
2022-08-30T06:48:17.417Z,7.17
2022-08-30T06:50:54.397Z,6.20
2022-08-30T06:53:22.683Z,6.20
2022-08-30T06:56:06.828Z,6.17
2022-08-30T06:58:36.145Z,5.67
2022-08-30T07:01:04.621Z,6.27
2022-08-30T07:03:32.454Z,6.47
2022-08-30T07:06:00.086Z,5.90
2022-08-30T07:08:27.796Z,6.33
2022-08-30T07:10:55.797Z,6.00
2022-08-30T07:13:24.648Z,5.50
2022-08-30T07:15:52.722Z,5.93
2022-08-30T07:18:20.816Z,5.43
2022-08-30T07:20:48.389Z,4.97
2022-08-30T07:23:16.111Z,5.10
2022-08-30T07:25:43.840Z,5.13
2022-08-30T07:28:12.369Z,5.20
2022-08-30T07:30:41.563Z,4.50
2022-08-30T07:33:09.624Z,5.63
2022-08-30T07:35:37.187Z,5.93
2022-08-30T07:38:04.775Z,5.63
2022-08-30T07:40:32.561Z,5.93
2022-08-30T07:43:00.153Z,6.00
2022-08-30T07:45:28.196Z,5.67
2022-08-30T07:47:55.737Z,6.30
2022-08-30T07:50:23.616Z,5.60
2022-08-30T07:52:51.485Z,5.90
2022-08-30T07:55:19.136Z,5.80
2022-08-30T07:57:46.667Z,5.70
2022-08-30T08:00:14.549Z,5.40
2022-08-30T08:02:42.384Z,6.03
2022-08-30T08:05:13.923Z,5.97
2022-08-30T08:07:44.731Z,5.57
2022-08-30T08:10:12.387Z,6.50
2022-08-30T08:12:40.950Z,5.87
2022-08-30T08:15:09.201Z,6.23
2022-08-30T08:17:36.776Z,6.53
2022-08-30T08:23:45.952Z,5.70
2022-08-30T08:26:13.719Z,5.90
2022-08-30T08:28:41.453Z,5.30
2022-08-30T08:31:21.268Z,4.90
2022-08-30T08:37:32.439Z,5.07
2022-08-30T08:43:41.992Z,4.50
2022-08-30T08:46:41.308Z,4.73
2022-08-30T08:49:13.348Z,5.35
2022-08-30T08:51:41.306Z,5.90
2022-08-30T08:58:01.460Z,5.17
2022-08-30T09:00:29.177Z,5.43
2022-08-30T09:10:11.161Z,5.35
2022-08-30T09:12:38.994Z,5.35
2022-08-30T09:22:41.692Z,5.32
2022-08-30T09:25:19.130Z,4.95
2022-08-30T09:27:50.038Z,4.32
2022-08-30T09:30:23.904Z,5.22
2022-08-30T09:33:03.719Z,4.60
2022-08-30T09:35:47.363Z,5.35
2022-08-30T09:38:32.559Z,4.13
2022-08-30T09:41:21.676Z,4.38
2022-08-30T09:44:08.878Z,4.72
2022-08-30T09:46:45.754Z,4.40
2022-08-30T09:49:40.860Z,4.50
2022-08-30T09:52:30.298Z,4.50
2022-08-30T09:55:31.069Z,4.25
2022-08-30T09:58:21.708Z,3.90
2022-08-30T10:01:20.537Z,3.90
2022-08-30T10:04:35.292Z,4.82
2022-08-30T10:07:16.062Z,4.10
2022-08-30T10:09:49.534Z,4.38
2022-08-30T10:12:47.210Z,4.15
2022-08-30T10:15:23.882Z,4.30
2022-08-30T10:18:05.903Z,3.63
2022-08-30T10:20:57.138Z,3.67
2022-08-30T10:27:13.977Z,3.63
2022-08-30T10:33:42.048Z,3.33
2022-08-30T10:36:15.250Z,3.55
2022-08-30T10:42:41.125Z,3.70
2022-08-30T10:53:32.695Z,4.40
2022-08-30T10:56:10.884Z,3.28
2022-08-30T11:03:20.198Z,3.30
2022-08-30T11:14:46.753Z,3.38
2022-08-30T11:17:35.120Z,3.40
2022-08-30T11:25:10.977Z,3.33
2022-08-30T11:27:56.340Z,3.17
2022-08-30T11:30:27.630Z,3.50
2022-08-30T11:41:46.210Z,3.47
2022-08-30T11:45:15.080Z,3.60
2022-08-30T11:52:27.889Z,3.72
2022-08-30T11:55:34.274Z,3.35
2022-08-30T11:58:25.790Z,3.20
2022-08-30T12:01:51.296Z,3.50
2022-08-30T12:08:34.086Z,3.60
2022-08-30T12:11:12.683Z,3.70
2022-08-30T12:22:05.433Z,3.60
2022-08-30T12:24:41.021Z,3.45
2022-08-30T12:27:33.145Z,3.40
2022-08-30T12:30:06.399Z,3.97
2022-08-30T12:32:34.472Z,3.55
2022-08-30T12:35:05.891Z,3.55
2022-08-30T12:41:43.998Z,3.63
2022-08-30T12:44:28.253Z,3.63
2022-08-30T12:47:03.128Z,3.42
2022-08-30T12:49:37.429Z,3.40
2022-08-30T12:52:34.601Z,3.58
2022-08-30T13:03:35.962Z,3.70
2022-08-30T13:06:06.156Z,3.38
2022-08-30T13:08:35.763Z,3.90
2022-08-30T13:11:08.798Z,3.75
2022-08-30T13:14:18.380Z,3.92
2022-08-30T13:16:47.883Z,3.60
2022-08-30T13:19:43.021Z,3.70
2022-08-30T13:22:42.871Z,3.83
2022-08-30T13:25:11.714Z,3.75
2022-08-30T13:27:40.173Z,4.50
2022-08-30T13:30:15.072Z,4.15
2022-08-30T13:36:56.895Z,3.58
2022-08-30T13:44:09.403Z,4.20
2022-08-30T13:50:31.024Z,3.78
2022-08-30T13:52:58.748Z,3.58
2022-08-30T13:59:26.151Z,3.63
2022-08-30T14:02:11.532Z,4.07
2022-08-30T14:12:54.578Z,3.70
2022-08-30T14:15:24.588Z,3.70
2022-08-30T14:22:01.634Z,3.97
2022-08-30T14:24:29.053Z,4.13
2022-08-30T14:26:56.627Z,5.03
2022-08-30T14:29:26.401Z,4.70
2022-08-30T14:31:59.702Z,4.63
2022-08-30T14:38:26.758Z,5.00
2022-08-30T14:49:05.772Z,4.53
2022-08-30T14:51:33.111Z,4.68
2022-08-30T14:58:01.748Z,5.10
2022-08-30T15:00:29.094Z,4.60
2022-08-30T15:02:56.978Z,4.30
2022-08-30T15:05:24.232Z,4.65
2022-08-30T15:07:51.537Z,4.88
2022-08-30T15:10:21.095Z,4.22
2022-08-30T15:12:50.017Z,4.47
2022-08-30T15:15:21.190Z,4.80
2022-08-30T15:21:49.262Z,4.03
2022-08-30T15:24:24.852Z,4.60
2022-08-30T15:26:59.456Z,5.03
2022-08-30T15:29:28.018Z,4.70
2022-08-30T15:31:59.756Z,4.78
2022-08-30T15:38:26.867Z,5.00
2022-08-30T15:40:56.117Z,5.13
2022-08-30T15:43:23.313Z,4.65
2022-08-30T15:45:50.595Z,5.15
2022-08-30T15:48:17.954Z,5.03
2022-08-30T15:50:45.759Z,5.10
2022-08-30T15:57:23.409Z,5.20
2022-08-30T15:59:51.141Z,5.43
2022-08-30T16:02:18.422Z,5.20
2022-08-30T16:13:06.290Z,5.00
2022-08-30T16:15:34.440Z,5.38
2022-08-30T16:22:11.806Z,4.97
2022-08-30T16:24:39.240Z,5.25
2022-08-30T16:27:06.514Z,5.32
2022-08-30T16:33:30.477Z,5.30
2022-08-30T16:36:00.390Z,5.75
2022-08-30T16:38:28.328Z,6.10
2022-08-30T16:40:56.614Z,6.03
2022-08-30T16:47:33.742Z,5.30
2022-08-30T17:02:29.828Z,5.13
2022-08-30T17:09:09.543Z,5.85
2022-08-30T17:12:40.969Z,5.80
2022-08-30T17:25:02.613Z,5.55
2022-08-30T17:27:30.100Z,5.70
2022-08-30T17:30:06.333Z,5.15
2022-08-30T17:32:34.548Z,5.38
2022-08-30T17:35:02.017Z,5.20
2022-08-30T17:37:29.243Z,5.18
2022-08-30T17:39:56.430Z,5.18
2022-08-30T17:42:23.685Z,5.38
2022-08-30T17:44:59.451Z,5.40
2022-08-30T17:47:29.598Z,4.97
2022-08-30T17:50:05.554Z,5.25
2022-08-30T17:52:33.930Z,4.90
2022-08-30T17:55:01.824Z,4.75
2022-08-30T17:57:29.587Z,5.07
2022-08-30T17:59:56.958Z,4.93
2022-08-30T18:02:29.823Z,4.90
2022-08-30T18:04:59.115Z,4.93
2022-08-30T18:07:29.342Z,5.43
2022-08-30T18:09:58.470Z,4.90
2022-08-30T18:12:27.999Z,4.80
2022-08-30T18:14:55.262Z,5.32
2022-08-30T18:17:22.575Z,5.28
2022-08-30T18:19:49.751Z,4.90
2022-08-30T18:22:17.668Z,4.93
2022-08-30T18:24:48.096Z,4.97
2022-08-30T18:27:15.381Z,5.07
2022-08-30T18:29:42.898Z,5.25
2022-08-30T18:32:10.790Z,4.88
2022-08-30T18:34:39.557Z,4.82
2022-08-30T18:37:12.411Z,4.30
2022-08-30T18:39:41.298Z,4.25
2022-08-30T18:42:09.753Z,4.88
2022-08-30T18:44:37.724Z,4.57
2022-08-30T18:47:05.925Z,4.32
2022-08-30T18:49:35.546Z,4.07
2022-08-30T18:52:06.624Z,4.22
2022-08-30T18:54:37.599Z,4.05
2022-08-30T18:57:05.441Z,3.30
2022-08-30T18:59:36.787Z,3.58
2022-08-30T19:02:09.625Z,3.17
2022-08-30T19:04:37.813Z,3.40
2022-08-30T19:07:10.763Z,3.22
2022-08-30T19:09:38.918Z,3.17
2022-08-30T19:12:09.474Z,3.40
2022-08-30T19:14:37.678Z,3.63
2022-08-30T19:17:07.179Z,3.25
2022-08-30T19:19:36.873Z,3.78
2022-08-30T19:22:13.878Z,2.93
2022-08-30T19:24:42.393Z,3.70
2022-08-30T19:27:11.139Z,3.90
2022-08-30T19:29:39.320Z,3.47
2022-08-30T19:32:07.077Z,3.40
2022-08-30T19:34:37.822Z,3.55
2022-08-30T19:37:05.613Z,3.63
2022-08-30T19:39:33.220Z,3.72
2022-08-30T19:42:00.839Z,3.83
2022-08-30T19:44:28.496Z,3.93
2022-08-30T19:46:57.973Z,3.73
2022-08-30T19:49:26.229Z,3.87
2022-08-30T19:51:53.913Z,3.93
2022-08-30T19:54:21.480Z,4.07
2022-08-30T19:56:49.072Z,4.10
2022-08-30T19:59:17.585Z,4.23
2022-08-30T20:01:45.952Z,3.60
2022-08-30T20:04:13.811Z,4.23
2022-08-30T20:06:41.442Z,4.20
2022-08-30T20:09:11.283Z,3.50
2022-08-30T20:11:40.104Z,3.63
2022-08-30T20:14:08.517Z,4.30
2022-08-30T20:16:37.934Z,3.57
2022-08-30T20:19:08.331Z,3.70
2022-08-30T20:21:36.603Z,3.93
2022-08-30T20:24:05.473Z,4.07
2022-08-30T20:26:38.303Z,3.83
2022-08-30T20:29:07.290Z,4.07
2022-08-30T20:31:35.373Z,3.87
2022-08-30T20:34:04.335Z,4.13
2022-08-30T20:36:31.913Z,3.87
2022-08-30T20:38:59.581Z,3.80
2022-08-30T20:41:27.271Z,3.60
2022-08-30T20:43:55.071Z,4.03
2022-08-30T20:46:22.899Z,3.97
2022-08-30T20:48:50.490Z,3.83
2022-08-30T20:51:20.364Z,3.90
2022-08-30T20:53:47.955Z,4.10
2022-08-30T20:56:18.776Z,3.63
2022-08-30T20:58:46.536Z,3.73
2022-08-30T21:01:15.703Z,4.23
2022-08-30T21:03:45.083Z,3.63
2022-08-30T21:06:12.716Z,4.07
2022-08-30T21:08:40.388Z,3.63
2022-08-30T21:11:08.146Z,3.30
2022-08-30T21:13:37.076Z,3.27
2022-08-30T21:16:05.527Z,3.47
2022-08-30T21:18:34.515Z,3.60
2022-08-30T21:21:16.846Z,3.40
2022-08-30T21:23:44.357Z,3.43
2022-08-30T21:26:12.261Z,3.80
2022-08-30T21:28:40.007Z,3.43
2022-08-30T21:31:13.096Z,3.70
2022-08-30T21:33:41.659Z,3.50
2022-08-30T21:36:10.339Z,3.80
2022-08-30T21:38:37.834Z,4.23
2022-08-30T21:41:05.449Z,3.27
2022-08-30T21:43:32.944Z,3.50
2022-08-30T21:46:08.970Z,3.50
2022-08-30T21:48:37.746Z,4.37
2022-08-30T21:51:10.750Z,3.60
2022-08-30T21:53:38.274Z,4.20
2022-08-30T21:56:20.885Z,3.27
2022-08-30T21:58:49.963Z,3.13
2022-08-30T22:01:26.832Z,3.60
2022-08-30T22:03:57.053Z,3.33
2022-08-30T22:06:29.303Z,3.33
2022-08-30T22:09:00.135Z,3.30
2022-08-30T22:11:29.128Z,3.10
2022-08-30T22:13:56.762Z,3.00
2022-08-30T22:23:59.609Z,2.93
2022-08-30T22:30:36.839Z,3.13
2022-08-30T22:33:04.456Z,3.37
2022-08-30T22:35:32.003Z,3.07
2022-08-30T22:37:59.508Z,3.40
2022-08-30T22:40:27.116Z,3.37
2022-08-30T22:42:54.867Z,3.80
2022-08-30T22:45:22.402Z,3.90
2022-08-30T22:47:49.978Z,3.70
2022-08-30T22:50:17.538Z,3.70
2022-08-30T22:52:45.339Z,3.67
2022-08-30T22:55:12.975Z,4.00
2022-08-30T23:01:26.111Z,3.27
2022-08-30T23:03:54.228Z,3.90
2022-08-30T23:06:22.063Z,3.47
2022-08-30T23:08:49.830Z,3.10
2022-08-30T23:11:18.001Z,3.03
2022-08-30T23:13:45.980Z,3.20
2022-08-30T23:16:15.630Z,3.00
2022-08-30T23:37:31.820Z,3.50
2022-08-30T23:47:31.866Z,2.47
2022-08-30T23:53:51.140Z,2.97
2022-08-30T23:56:18.660Z,2.33
2022-08-30T23:58:46.191Z,2.47
